LFBG

Cognac-Châteaubernard (BA 709) Air Base

Airport
ICAO code
LFBG
IATA Code
CNG
Summary
ICAO Region
EUR
ICAO Territory
Location

, Poitou-Charentes

Serving
Cognac
Elevation
102 ft
Coordinates
45° 39' 30" N , 0° 19' 3" W
Metar
Observation
LFBG 091900Z AUTO 01008KT CAVOK 01/M02 Q1005
Station
Cognac
Date/Time
2022-12-09 19:00:00
Wind direction
10°
Wind speed
08 kts
Lowest cloud amount
clouds and visibility OK
Temperature
1°C
Dew point
-2°C
Humidity
80%
QNH
1005 hPa
Weather condition
n/a

Runways

Designator Length Width Surface Rops
9/27 1875 60 MAC No/No
5/23 2423 45 PEM No/No

Airport map

Aerial View

SKYbrary Partners:

Safety knowledge contributed by: